Terminal Aerodrome Forecast
Issued by NWS Lake Charles, LA

Home | Current Version | Previous Version | Text Only | Print | Product List | Glossary On
Versions: 1 2 3 4 5 6 7 8 9 10 11 12 13 14 15 16 17 18 19 20 21
343
FTUS44 KLCH 200538
TAFARA
TAF
KARA 200538Z 2006/2106 15006KT P6SM VCSH SCT015 OVC045
     FM201500 17013G23KT P6SM BKN035
     FM201800 17017G24KT P6SM VCSH SCT035 BKN070
     FM202200 17015G21KT P6SM VCSH SCT035 BKN100=

USA.gov is the U.S. government's official web portal to all federal, state and local government web resources and services.